createdAt,value
2016-10-11T00:01:34.702Z,1013.6
2016-10-11T00:11:49.707Z,1013.6
2016-10-11T00:22:03.810Z,1013.5
2016-10-11T00:32:19.077Z,1013.5
2016-10-11T00:42:32.833Z,1013.5
2016-10-11T00:52:47.216Z,1013.4
2016-10-11T01:03:01.629Z,1013.4
2016-10-11T01:13:16.355Z,1013.3
2016-10-11T01:23:31.036Z,1013.2
2016-10-11T01:33:45.586Z,1013.2
2016-10-11T01:44:00.312Z,1013.2
2016-10-11T01:54:15.478Z,1013.1
2016-10-11T02:04:29.854Z,1013.1
2016-10-11T02:14:43.669Z,1013
2016-10-11T02:24:57.094Z,1013
2016-10-11T02:35:11.297Z,1012.9
2016-10-11T02:45:24.655Z,1012.9
2016-10-11T02:55:38.527Z,1012.9
2016-10-11T03:05:51.920Z,1012.9
2016-10-11T03:16:05.440Z,1012.8
2016-10-11T03:26:20.344Z,1012.8
2016-10-11T03:36:35.641Z,1012.8
2016-10-11T03:46:50.277Z,1012.7
2016-10-11T03:57:05.209Z,1012.7
2016-10-11T04:07:20.376Z,1012.6
2016-10-11T04:17:35.572Z,1012.6
2016-10-11T04:27:49.158Z,1012.5
2016-10-11T04:38:04.018Z,1012.5
2016-10-11T04:48:18.197Z,1012.5
2016-10-11T04:58:32.459Z,1012.5
2016-10-11T05:08:47.219Z,1012.5
2016-10-11T05:19:00.748Z,1012.5
2016-10-11T05:29:15.342Z,1012.5
2016-10-11T05:39:29.829Z,1012.5
2016-10-11T05:49:43.448Z,1012.5
2016-10-11T05:59:59.072Z,1012.5
2016-10-11T06:10:12.227Z,1012.5
2016-10-11T06:20:25.594Z,1012.5
2016-10-11T06:30:39.509Z,1012.4
2016-10-11T06:40:53.581Z,1012.3
2016-10-11T06:51:07.746Z,1012.4
2016-10-11T07:01:22.578Z,1012.4
2016-10-11T07:11:36.614Z,1012.4
2016-10-11T07:21:51.209Z,1012.5
2016-10-11T07:32:05.791Z,1012.6
2016-10-11T07:42:20.259Z,1012.7
2016-10-11T07:52:35.586Z,1012.7
2016-10-11T08:02:49.555Z,1012.8
2016-10-11T08:13:03.414Z,1012.8
2016-10-11T08:23:18.191Z,1012.8
2016-10-11T08:33:31.924Z,1012.7
2016-10-11T08:43:47.155Z,1012.7
2016-10-11T08:54:00.822Z,1012.7
2016-10-11T09:04:15.739Z,1012.7
2016-10-11T09:14:29.269Z,1012.8
2016-10-11T09:24:43.387Z,1012.8
2016-10-11T09:34:57.111Z,1012.8
2016-10-11T09:45:11.836Z,1012.7
2016-10-11T09:55:25.308Z,1012.6
2016-10-11T10:05:39.332Z,1012.6
2016-10-11T10:15:53.150Z,1012.6
2016-10-11T10:26:06.898Z,1012.6
2016-10-11T10:36:21.872Z,1012.7
2016-10-11T10:46:36.044Z,1012.6
2016-10-11T10:56:49.514Z,1012.6
2016-10-11T11:07:03.401Z,1012.6
2016-10-11T11:17:17.206Z,1012.5
2016-10-11T11:27:31.650Z,1012.5
2016-10-11T11:37:45.792Z,1012.4
2016-10-11T11:48:00.808Z,1012.4
2016-10-11T11:58:14.354Z,1012.3
2016-10-11T12:08:28.448Z,1012.2
2016-10-11T12:18:43.448Z,1012.2
2016-10-11T12:28:57.627Z,1012.2
2016-10-11T12:39:11.154Z,1012.2
2016-10-11T12:49:25.273Z,1012.1
2016-10-11T12:59:39.790Z,1012.2
2016-10-11T13:09:53.214Z,1012.1
2016-10-11T13:20:07.564Z,1012.1
2016-10-11T13:30:21.203Z,1012.1
2016-10-11T13:40:35.538Z,1012.1
2016-10-11T13:50:49.535Z,1012
2016-10-11T14:01:03.973Z,1012
2016-10-11T14:11:17.655Z,1011.8
2016-10-11T14:21:31.563Z,1011.7
2016-10-11T14:31:46.598Z,1011.7
2016-10-11T14:42:01.359Z,1011.7
2016-10-11T14:52:15.144Z,1011.8
2016-10-11T15:02:29.589Z,1011.8
2016-10-11T15:12:44.042Z,1011.8
2016-10-11T15:22:57.539Z,1011.7
2016-10-11T15:33:11.301Z,1011.6
2016-10-11T15:43:26.381Z,1011.6
2016-10-11T15:53:40.402Z,1011.5
2016-10-11T16:03:54.344Z,1011.5
2016-10-11T16:14:09.102Z,1011.5
2016-10-11T16:24:23.159Z,1011.5
2016-10-11T16:34:36.594Z,1011.6
2016-10-11T16:44:51.160Z,1011.6
2016-10-11T16:55:05.796Z,1011.6
2016-10-11T17:05:20.778Z,1011.6
2016-10-11T17:15:35.274Z,1011.6
2016-10-11T17:25:49.231Z,1011.6
2016-10-11T17:36:03.626Z,1011.6
2016-10-11T17:46:18.735Z,1011.7
2016-10-11T17:56:32.412Z,1011.6
2016-10-11T18:06:46.406Z,1011.7
2016-10-11T18:17:01.130Z,1011.7
2016-10-11T18:27:16.726Z,1011.6
2016-10-11T18:37:29.679Z,1011.5
2016-10-11T18:47:44.750Z,1011.6
2016-10-11T18:57:58.556Z,1011.5
2016-10-11T19:08:13.640Z,1011.6
2016-10-11T19:18:28.104Z,1011.6
2016-10-11T19:28:42.143Z,1011.6
2016-10-11T19:38:57.124Z,1011.6
2016-10-11T19:49:11.558Z,1011.5
2016-10-11T19:59:26.822Z,1011.5
2016-10-11T20:09:41.546Z,1011.4
2016-10-11T20:19:56.185Z,1011.5
2016-10-11T20:30:11.480Z,1011.5
2016-10-11T20:40:25.493Z,1011.4
2016-10-11T20:50:40.137Z,1011.3
2016-10-11T21:00:54.160Z,1011.4
2016-10-11T21:11:09.359Z,1011.4
2016-10-11T21:21:24.018Z,1011.4
2016-10-11T21:31:37.421Z,1011.4
2016-10-11T21:41:52.512Z,1011.3
2016-10-11T21:52:07.811Z,1011.3
2016-10-11T22:02:21.895Z,1011.3
2016-10-11T22:12:35.364Z,1011.3
2016-10-11T22:22:49.426Z,1011.3
2016-10-11T22:33:03.552Z,1011.4
2016-10-11T22:43:18.541Z,1011.4
2016-10-11T22:53:33.614Z,1011.4
2016-10-11T23:03:48.072Z,1011.3
2016-10-11T23:14:02.758Z,1011.3
2016-10-11T23:24:17.726Z,1011.3
2016-10-11T23:34:32.763Z,1011.3
2016-10-11T23:44:47.095Z,1011.3
2016-10-11T23:55:02.315Z,1011.3
